Time;durP1;ratioP1;P1;durP2;ratioP2;P2;SDS_P1;SDS_P2;PMS_P1;PMS_P2;Temp;Humidity;BMP_temperature;BMP_pressure;BME280_temperature;BME280_humidity;BME280_pressure;Samples;Min_cycle;Max_cycle;Signal;HPM_P1;HPM_P2
2022/07/11 00:00:03;;;;;;;1.53;0.93;;;;;;;;;;5108839;28;20203;-78
2022/07/11 00:03:08;;;;;;;2.33;1.20;;;;;;;;;;5101402;28;20175;-78
2022/07/11 00:06:13;;;;;;;2.13;0.90;;;;;;;;;;5120730;28;20197;-78
2022/07/11 00:09:17;;;;;;;1.70;0.80;;;;;;;;;;5109511;28;20170;-78
2022/07/11 00:12:21;;;;;;;1.50;0.83;;;;;;;;;;5097344;28;20210;-78
2022/07/11 00:15:26;;;;;;;3.77;1.07;;;;;;;;;;5108119;28;20194;-78
2022/07/11 00:18:30;;;;;;;2.40;1.00;;;;;;;;;;5108287;28;20174;-78
2022/07/11 00:21:35;;;;;;;2.83;0.90;;;;;;;;;;5097123;28;20214;-79
2022/07/11 00:24:40;;;;;;;2.83;0.80;;;;;;;;;;5108397;28;20636;-78
2022/07/11 00:27:44;;;;;;;2.47;1.00;;;;;;;;;;5120849;28;20206;-78
2022/07/11 00:30:48;;;;;;;2.43;1.03;;;;;;;;;;5085221;28;20210;-78
2022/07/11 00:33:53;;;;;;;1.87;1.00;;;;;;;;;;5117023;28;20182;-78
2022/07/11 00:36:57;;;;;;;1.43;0.80;;;;;;;;;;5100541;28;20175;-78
2022/07/11 00:40:03;;;;;;;0.90;0.80;;;;;;;;;;5065551;28;20179;-78
2022/07/11 00:43:07;;;;;;;2.77;1.00;;;;;;;;;;5088798;28;20175;-78
2022/07/11 00:46:11;;;;;;;3.33;1.13;;;;;;;;;;5075777;28;20183;-78
2022/07/11 00:49:15;;;;;;;1.53;0.90;;;;;;;;;;5083328;28;20222;-77
2022/07/11 00:52:19;;;;;;;1.30;0.90;;;;;;;;;;5073776;28;20214;-77
2022/07/11 00:55:23;;;;;;;2.07;1.00;;;;;;;;;;5117803;22;20234;-85
2022/07/11 00:58:27;;;;;;;0.97;0.80;;;;;;;;;;5060518;28;20175;-84
2022/07/11 01:01:33;;;;;;;2.00;1.00;;;;;;;;;;5059549;28;20183;-84
2022/07/11 01:04:37;;;;;;;1.30;1.07;;;;;;;;;;5051080;28;20218;-84
2022/07/11 01:07:42;;;;;;;3.07;1.00;;;;;;;;;;5051412;28;20199;-84
2022/07/11 01:10:46;;;;;;;1.57;0.90;;;;;;;;;;5039621;28;20175;-84
2022/07/11 01:13:50;;;;;;;2.40;0.97;;;;;;;;;;5039474;28;20213;-85
2022/07/11 01:16:55;;;;;;;2.00;1.07;;;;;;;;;;5039748;28;20504;-84
2022/07/11 01:20:00;;;;;;;2.40;0.90;;;;;;;;;;5061863;28;20179;-84
2022/07/11 01:23:07;;;;;;;1.17;1.00;;;;;;;;;;5050719;28;20180;-85
2022/07/11 01:26:12;;;;;;;2.80;1.23;;;;;;;;;;5039458;28;20176;-84
2022/07/11 01:29:16;;;;;;;1.53;1.00;;;;;;;;;;5050835;28;20227;-86
2022/07/11 01:32:21;;;;;;;0.80;0.80;;;;;;;;;;5039710;28;20198;-85
2022/07/11 01:35:26;;;;;;;3.20;1.00;;;;;;;;;;5050125;28;20554;-85
2022/07/11 01:38:29;;;;;;;2.50;1.10;;;;;;;;;;5050259;28;20171;-86
2022/07/11 01:41:34;;;;;;;0.90;0.80;;;;;;;;;;5062728;28;20180;-85
2022/07/11 01:44:38;;;;;;;2.53;0.97;;;;;;;;;;5049883;28;20214;-86
2022/07/11 01:47:42;;;;;;;3.30;1.30;;;;;;;;;;5040280;28;20203;-84
2022/07/11 01:50:47;;;;;;;2.30;1.07;;;;;;;;;;5046591;28;20190;-86
2022/07/11 01:53:52;;;;;;;4.63;1.20;;;;;;;;;;5070216;28;20179;-86
2022/07/11 01:56:56;;;;;;;3.00;0.80;;;;;;;;;;5050755;28;20183;-84
2022/07/11 02:00:00;;;;;;;1.33;1.17;;;;;;;;;;5054359;28;20186;-84
2022/07/11 02:03:04;;;;;;;2.07;1.30;;;;;;;;;;5058677;28;20538;-84
2022/07/11 02:06:08;;;;;;;1.37;1.10;;;;;;;;;;5058526;28;20194;-85
2022/07/11 02:09:12;;;;;;;1.90;1.27;;;;;;;;;;5058765;28;20218;-85
2022/07/11 02:12:18;;;;;;;2.83;1.07;;;;;;;;;;5058412;28;20194;-85
2022/07/11 02:15:22;;;;;;;2.63;1.27;;;;;;;;;;5080756;28;20210;-86
2022/07/11 02:18:26;;;;;;;1.30;0.90;;;;;;;;;;5070642;28;20175;-84
2022/07/11 02:21:30;;;;;;;2.37;0.70;;;;;;;;;;5058935;28;20629;-84
2022/07/11 02:24:34;;;;;;;2.07;1.00;;;;;;;;;;5069725;28;20215;-85
2022/07/11 02:27:38;;;;;;;2.97;0.90;;;;;;;;;;5069710;28;20170;-85
2022/07/11 02:30:45;;;;;;;1.80;1.00;;;;;;;;;;5058078;28;20175;-84
2022/07/11 02:33:49;;;;;;;3.43;1.03;;;;;;;;;;5059417;28;20194;-84
2022/07/11 02:36:54;;;;;;;2.40;0.90;;;;;;;;;;5070060;28;20538;-85
2022/07/11 02:39:58;;;;;;;1.93;1.30;;;;;;;;;;5058657;28;20183;-85
2022/07/11 02:43:02;;;;;;;3.33;1.20;;;;;;;;;;5039159;28;20188;-85
2022/07/11 02:46:06;;;;;;;2.50;1.10;;;;;;;;;;5038866;28;20175;-84
2022/07/11 02:49:10;;;;;;;4.67;1.00;;;;;;;;;;5039199;28;20207;-86
2022/07/11 02:52:14;;;;;;;2.47;1.00;;;;;;;;;;5050450;28;20522;-86
2022/07/11 02:55:18;;;;;;;1.43;0.90;;;;;;;;;;5039040;28;20566;-86
2022/07/11 02:58:23;;;;;;;3.60;1.07;;;;;;;;;;5050396;28;20184;-86
2022/07/11 03:01:27;;;;;;;2.00;1.00;;;;;;;;;;5051162;28;20175;-85
2022/07/11 03:04:32;;;;;;;2.40;1.03;;;;;;;;;;5040477;28;20558;-85
2022/07/11 03:07:36;;;;;;;1.47;1.00;;;;;;;;;;5052736;28;20199;-85
2022/07/11 03:10:41;;;;;;;2.63;1.10;;;;;;;;;;5053567;28;20176;-84
2022/07/11 03:13:45;;;;;;;1.77;0.90;;;;;;;;;;5053999;28;20180;-85
2022/07/11 03:16:49;;;;;;;2.17;1.00;;;;;;;;;;5053459;28;20183;-85
2022/07/11 03:19:53;;;;;;;1.90;1.10;;;;;;;;;;5054077;28;20172;-85
2022/07/11 03:22:57;;;;;;;1.53;1.20;;;;;;;;;;5077686;28;20235;-86
2022/07/11 03:26:01;;;;;;;1.90;0.90;;;;;;;;;;5068256;28;20218;-86
2022/07/11 03:29:07;;;;;;;4.00;1.10;;;;;;;;;;5072455;28;20218;-85
2022/07/11 03:32:12;;;;;;;1.67;0.80;;;;;;;;;;5073036;28;20657;-84
2022/07/11 03:38:39;;;;;;;3.50;1.20;;;;;;;;;;5064972;28;20176;-85
2022/07/11 03:41:43;;;;;;;4.03;1.10;;;;;;;;;;5042710;28;20192;-85
2022/07/11 03:44:47;;;;;;;2.73;1.00;;;;;;;;;;5041446;28;20285;-84
2022/07/11 03:47:51;;;;;;;2.67;1.17;;;;;;;;;;5064513;28;20176;-84
2022/07/11 03:50:55;;;;;;;1.20;0.93;;;;;;;;;;5052662;28;20184;-84
2022/07/11 03:54:00;;;;;;;1.63;0.80;;;;;;;;;;5052296;28;20215;-85
2022/07/11 03:57:04;;;;;;;3.23;1.10;;;;;;;;;;5042327;28;20179;-85
2022/07/11 04:00:09;;;;;;;2.37;1.20;;;;;;;;;;5052187;28;20171;-85
2022/07/11 04:03:13;;;;;;;3.37;1.50;;;;;;;;;;5063269;28;20176;-85
2022/07/11 04:06:18;;;;;;;1.47;1.00;;;;;;;;;;5051618;28;20175;-85
2022/07/11 04:09:24;;;;;;;3.83;1.37;;;;;;;;;;5040388;28;20207;-86
2022/07/11 04:12:28;;;;;;;3.03;1.00;;;;;;;;;;5051606;28;20180;-86
2022/07/11 04:15:32;;;;;;;3.90;1.07;;;;;;;;;;5051814;28;20262;-86
2022/07/11 04:18:37;;;;;;;2.47;1.00;;;;;;;;;;5051149;28;20527;-85
2022/07/11 04:21:41;;;;;;;4.47;1.00;;;;;;;;;;5040373;28;20179;-85
2022/07/11 04:24:45;;;;;;;2.20;1.07;;;;;;;;;;5051222;28;20219;-85
2022/07/11 04:27:49;;;;;;;2.30;1.00;;;;;;;;;;5051504;28;20195;-86
2022/07/11 04:30:53;;;;;;;1.97;1.10;;;;;;;;;;5050279;28;20198;-85
2022/07/11 04:33:57;;;;;;;2.70;1.30;;;;;;;;;;5059701;28;20182;-85
2022/07/11 04:37:01;;;;;;;2.40;1.00;;;;;;;;;;5071557;28;20178;-85
2022/07/11 04:40:06;;;;;;;3.50;1.03;;;;;;;;;;5059918;28;20175;-85
2022/07/11 04:43:10;;;;;;;1.83;1.13;;;;;;;;;;5077111;28;20174;-85
2022/07/11 04:46:14;;;;;;;1.17;0.80;;;;;;;;;;5059758;28;20175;-85
2022/07/11 04:49:18;;;;;;;3.93;1.40;;;;;;;;;;5050659;28;20226;-85
2022/07/11 04:52:26;;;;;;;3.60;1.03;;;;;;;;;;5039130;28;20539;-85
2022/07/11 04:55:30;;;;;;;1.60;0.90;;;;;;;;;;5039015;28;20622;-86
2022/07/11 04:58:35;;;;;;;2.30;1.00;;;;;;;;;;5062035;28;20184;-86
2022/07/11 05:01:39;;;;;;;2.57;0.90;;;;;;;;;;5050489;28;20191;-86
2022/07/11 05:04:43;;;;;;;3.40;1.07;;;;;;;;;;5039712;28;20218;-85
2022/07/11 05:07:47;;;;;;;1.80;0.90;;;;;;;;;;5062126;28;20626;-85
2022/07/11 05:10:51;;;;;;;1.40;1.00;;;;;;;;;;5061650;28;20188;-85
2022/07/11 05:13:55;;;;;;;1.63;0.90;;;;;;;;;;5050420;28;20179;-85
2022/07/11 05:16:59;;;;;;;1.30;0.90;;;;;;;;;;5061858;28;20628;-86
2022/07/11 05:20:04;;;;;;;1.87;0.80;;;;;;;;;;5039429;28;20183;-86
2022/07/11 05:23:08;;;;;;;2.33;1.03;;;;;;;;;;5061948;28;20180;-85
2022/07/11 05:26:14;;;;;;;1.57;0.80;;;;;;;;;;5038956;28;20175;-85
2022/07/11 05:29:18;;;;;;;2.27;0.90;;;;;;;;;;5055284;28;20207;-86
2022/07/11 05:32:22;;;;;;;4.33;1.13;;;;;;;;;;5070404;28;20182;-86
2022/07/11 05:35:26;;;;;;;2.53;1.07;;;;;;;;;;5069894;28;20214;-85
2022/07/11 05:38:30;;;;;;;3.97;1.07;;;;;;;;;;5070438;28;20183;-85
2022/07/11 05:41:34;;;;;;;2.63;1.20;;;;;;;;;;5061268;28;20190;-85
2022/07/11 05:44:38;;;;;;;4.80;1.03;;;;;;;;;;5038546;28;20215;-85
2022/07/11 05:47:42;;;;;;;2.03;0.90;;;;;;;;;;5049843;28;20179;-85
2022/07/11 05:50:47;;;;;;;6.47;1.10;;;;;;;;;;5049562;28;20211;-85
2022/07/11 05:53:51;;;;;;;2.23;1.10;;;;;;;;;;5049374;28;20180;-85
2022/07/11 05:56:55;;;;;;;2.70;1.03;;;;;;;;;;5050093;28;20179;-85
2022/07/11 05:59:59;;;;;;;2.90;1.03;;;;;;;;;;5038543;28;20195;-88
2022/07/11 06:03:03;;;;;;;3.27;1.00;;;;;;;;;;5048721;28;20195;-88
2022/07/11 06:06:07;;;;;;;1.83;0.90;;;;;;;;;;5038580;28;20523;-88
2022/07/11 06:09:12;;;;;;;2.80;1.10;;;;;;;;;;5049537;28;20543;-88
2022/07/11 06:12:16;;;;;;;2.97;1.20;;;;;;;;;;5049396;28;20175;-87
2022/07/11 06:15:20;;;;;;;3.37;0.87;;;;;;;;;;5060900;28;20219;-86
2022/07/11 06:18:24;;;;;;;1.47;0.93;;;;;;;;;;5061150;28;20535;-88
2022/07/11 06:21:28;;;;;;;5.20;1.10;;;;;;;;;;5056323;28;20645;-87
2022/07/11 06:24:32;;;;;;;3.73;1.03;;;;;;;;;;5049412;28;20215;-87
2022/07/11 06:27:37;;;;;;;3.47;1.20;;;;;;;;;;5067833;28;20186;-87
2022/07/11 06:30:41;;;;;;;2.03;0.90;;;;;;;;;;5057223;28;20574;-87
2022/07/11 06:33:45;;;;;;;4.20;1.53;;;;;;;;;;5057268;28;20178;-86
2022/07/11 06:36:50;;;;;;;1.93;1.00;;;;;;;;;;5049001;28;20179;-87
2022/07/11 06:39:54;;;;;;;1.80;0.97;;;;;;;;;;5048608;28;20187;-89
2022/07/11 06:42:58;;;;;;;4.77;1.33;;;;;;;;;;5068544;28;20195;-89
2022/07/11 06:46:02;;;;;;;3.93;1.40;;;;;;;;;;5064251;28;20566;-87
2022/07/11 06:49:07;;;;;;;2.03;1.00;;;;;;;;;;5041893;28;20179;-87
2022/07/11 06:52:11;;;;;;;3.97;1.47;;;;;;;;;;5053295;28;20176;-87
2022/07/11 06:55:16;;;;;;;5.03;1.30;;;;;;;;;;5083747;23;20222;-85
2022/07/11 06:58:32;;;;;;;2.73;1.30;;;;;;;;;;5086616;28;20179;-84
2022/07/11 07:01:37;;;;;;;2.17;0.83;;;;;;;;;;5062820;28;20673;-85
2022/07/11 07:04:41;;;;;;;3.17;1.10;;;;;;;;;;5074690;28;20175;-84
2022/07/11 07:07:45;;;;;;;2.70;1.30;;;;;;;;;;5094388;28;20647;-84
2022/07/11 07:10:49;;;;;;;3.07;1.40;;;;;;;;;;5093428;28;20264;-85
2022/07/11 07:13:53;;;;;;;2.33;1.00;;;;;;;;;;5092761;28;20194;-85
2022/07/11 07:16:58;;;;;;;2.90;1.20;;;;;;;;;;5076224;28;20222;-86
2022/07/11 07:20:04;;;;;;;6.17;1.73;;;;;;;;;;5074475;28;20193;-86
2022/07/11 07:23:08;;;;;;;3.13;1.13;;;;;;;;;;5084866;28;20198;-85
2022/07/11 07:26:12;;;;;;;1.23;1.00;;;;;;;;;;5087091;28;20217;-85
2022/07/11 07:29:16;;;;;;;2.70;1.10;;;;;;;;;;5081691;28;20170;-85
2022/07/11 07:32:20;;;;;;;2.60;1.20;;;;;;;;;;5061658;28;20183;-85
2022/07/11 07:35:25;;;;;;;4.00;1.03;;;;;;;;;;5081862;28;20679;-85
2022/07/11 07:38:29;;;;;;;2.17;1.20;;;;;;;;;;5091643;28;20291;-85
2022/07/11 07:41:33;;;;;;;3.37;1.10;;;;;;;;;;5077413;28;20194;-85
2022/07/11 07:44:37;;;;;;;10.00;2.00;;;;;;;;;;5080927;28;20667;-85
2022/07/11 07:47:41;;;;;;;2.87;1.00;;;;;;;;;;5091820;28;20190;-85
2022/07/11 07:50:45;;;;;;;1.17;0.63;;;;;;;;;;5104163;28;20217;-85
2022/07/11 07:53:49;;;;;;;2.67;1.07;;;;;;;;;;5080251;28;20186;-85
2022/07/11 07:56:53;;;;;;;3.90;1.10;;;;;;;;;;5091756;28;20221;-85
2022/07/11 08:03:20;;;;;;;1.23;1.00;;;;;;;;;;5103768;28;20194;-85
2022/07/11 08:06:24;;;;;;;1.53;1.10;;;;;;;;;;5062727;28;20218;-85
2022/07/11 08:09:29;;;;;;;3.57;1.30;;;;;;;;;;5092329;28;20186;-85
2022/07/11 08:12:33;;;;;;;4.00;1.13;;;;;;;;;;5093108;28;20178;-85
2022/07/11 08:15:37;;;;;;;4.80;1.00;;;;;;;;;;5081288;28;20205;-85
2022/07/11 08:18:42;;;;;;;1.60;0.83;;;;;;;;;;5076044;28;20186;-85
2022/07/11 08:21:46;;;;;;;1.90;0.87;;;;;;;;;;5103633;28;20186;-85
2022/07/11 08:24:50;;;;;;;2.43;1.20;;;;;;;;;;5080759;28;20526;-85
2022/07/11 08:27:54;;;;;;;3.43;1.60;;;;;;;;;;5085135;28;20191;-84
2022/07/11 08:30:58;;;;;;;1.00;0.90;;;;;;;;;;5086685;28;20206;-85
2022/07/11 08:34:02;;;;;;;1.83;1.00;;;;;;;;;;5080809;28;20190;-84
2022/07/11 08:37:07;;;;;;;1.20;0.80;;;;;;;;;;5092181;28;20186;-84
2022/07/11 08:40:11;;;;;;;2.60;0.90;;;;;;;;;;5091934;28;20174;-87
2022/07/11 08:43:17;;;;;;;3.00;1.10;;;;;;;;;;5092427;28;20182;-84
2022/07/11 08:46:21;;;;;;;1.93;0.80;;;;;;;;;;5103519;28;20217;-84
2022/07/11 08:49:27;;;;;;;1.43;0.60;;;;;;;;;;5092770;28;20509;-84
2022/07/11 08:52:31;;;;;;;0.90;0.70;;;;;;;;;;5093037;28;20176;-84
2022/07/11 08:55:36;;;;;;;0.73;0.60;;;;;;;;;;5079708;28;20224;-85
2022/07/11 08:58:43;;;;;;;1.20;0.50;;;;;;;;;;5092738;28;20183;-84
2022/07/11 09:01:51;;;;;;;2.17;0.70;;;;;;;;;;5073131;28;20534;-84
2022/07/11 09:04:55;;;;;;;1.13;0.60;;;;;;;;;;5090414;28;20182;-84
2022/07/11 09:07:59;;;;;;;1.77;0.60;;;;;;;;;;5104376;28;20170;-84
2022/07/11 09:11:04;;;;;;;2.63;0.60;;;;;;;;;;5092737;28;20214;-84
2022/07/11 09:14:23;;;;;;;1.40;0.67;;;;;;;;;;5073532;28;20530;-84
2022/07/11 09:17:30;;;;;;;0.83;0.70;;;;;;;;;;5073454;28;20195;-84
2022/07/11 09:27:45;;;;;;;0.70;0.70;;;;;;;;;;5092633;28;20179;-84
2022/07/11 09:30:49;;;;;;;1.23;0.70;;;;;;;;;;5083041;28;20215;-83
2022/07/11 09:34:01;;;;;;;0.57;0.50;;;;;;;;;;5079924;28;20525;-84
2022/07/11 09:37:05;;;;;;;1.33;0.60;;;;;;;;;;5083930;28;20195;-83
2022/07/11 09:40:15;;;;;;;1.73;0.67;;;;;;;;;;5074659;28;20208;-84
2022/07/11 09:43:25;;;;;;;3.57;0.90;;;;;;;;;;5075160;28;20570;-83
2022/07/11 09:46:29;;;;;;;1.00;0.80;;;;;;;;;;5080495;28;20214;-83
2022/07/11 09:49:39;;;;;;;2.03;0.77;;;;;;;;;;5090563;28;20533;-83
2022/07/11 09:52:58;;;;;;;0.70;0.70;;;;;;;;;;5081325;28;20657;-83
2022/07/11 09:56:06;;;;;;;0.83;0.80;;;;;;;;;;5076911;28;20674;-83
2022/07/11 09:59:15;;;;;;;1.33;0.73;;;;;;;;;;5089477;28;20175;-83
2022/07/11 10:02:20;;;;;;;0.90;0.73;;;;;;;;;;5085828;28;20190;-85
2022/07/11 10:05:24;;;;;;;1.33;0.60;;;;;;;;;;5094917;28;20222;-85
2022/07/11 10:08:33;;;;;;;1.57;0.80;;;;;;;;;;5080308;28;20190;-85
2022/07/11 10:11:38;;;;;;;3.10;1.07;;;;;;;;;;5104755;28;20218;-85
2022/07/11 10:14:43;;;;;;;1.37;0.90;;;;;;;;;;5104435;28;20517;-85
2022/07/11 10:18:02;;;;;;;1.00;0.73;;;;;;;;;;5080326;28;20522;-85
2022/07/11 10:21:16;;;;;;;0.90;0.80;;;;;;;;;;5080519;28;20175;-85
2022/07/11 10:24:47;;;;;;;0.90;0.70;;;;;;;;;;5071389;28;20538;-85
2022/07/11 10:27:51;;;;;;;2.10;0.90;;;;;;;;;;5059869;28;20190;-84
2022/07/11 10:30:59;;;;;;;2.27;0.90;;;;;;;;;;5059926;28;20202;-85
2022/07/11 10:34:04;;;;;;;1.90;0.90;;;;;;;;;;5060306;28;20518;-84
2022/07/11 10:37:09;;;;;;;2.50;1.00;;;;;;;;;;5078805;28;20652;-83
2022/07/11 10:40:13;;;;;;;2.23;0.90;;;;;;;;;;5075360;28;20182;-84
2022/07/11 10:43:38;;;;;;;2.27;0.83;;;;;;;;;;5091732;28;20174;-84
2022/07/11 10:46:43;;;;;;;1.17;0.80;;;;;;;;;;5091330;28;20217;-84
2022/07/11 10:49:51;;;;;;;1.07;0.83;;;;;;;;;;5079671;28;20198;-84
2022/07/11 10:52:57;;;;;;;0.97;0.67;;;;;;;;;;5073388;28;20525;-83
2022/07/11 10:56:26;;;;;;;0.97;0.70;;;;;;;;;;5092140;28;20221;-84
2022/07/11 10:59:31;;;;;;;1.10;1.00;;;;;;;;;;5075715;28;20186;-84
2022/07/11 11:03:05;;;;;;;2.63;0.80;;;;;;;;;;5060086;28;20187;-84
2022/07/11 11:06:09;;;;;;;2.03;0.97;;;;;;;;;;5071481;28;20280;-84
2022/07/11 11:09:39;;;;;;;1.10;0.90;;;;;;;;;;5091350;28;20183;-84
2022/07/11 11:13:04;;;;;;;0.80;0.73;;;;;;;;;;5078514;28;20644;-84
2022/07/11 11:16:19;;;;;;;4.67;0.87;;;;;;;;;;5079471;28;20712;-84
2022/07/11 11:19:48;;;;;;;1.83;0.83;;;;;;;;;;5070763;28;20626;-86
2022/07/11 11:23:09;;;;;;;0.93;0.77;;;;;;;;;;5075881;28;20194;-84
2022/07/11 11:26:15;;;;;;;2.03;0.90;;;;;;;;;;5079406;28;20554;-84
2022/07/11 11:29:22;;;;;;;0.93;0.67;;;;;;;;;;5073364;28;20187;-84
2022/07/11 11:32:31;;;;;;;2.40;0.90;;;;;;;;;;5104603;28;20215;-84
2022/07/11 11:35:35;;;;;;;1.73;0.80;;;;;;;;;;5094810;28;20214;-85
2022/07/11 11:38:40;;;;;;;1.03;0.70;;;;;;;;;;5072988;28;20183;-84
2022/07/11 11:41:44;;;;;;;1.70;0.80;;;;;;;;;;5083137;28;20513;-85
2022/07/11 11:45:01;;;;;;;1.10;0.70;;;;;;;;;;5082090;28;20186;-84
2022/07/11 11:48:05;;;;;;;1.30;0.73;;;;;;;;;;5083731;28;20194;-83
2022/07/11 11:51:15;;;;;;;3.20;0.80;;;;;;;;;;5074363;28;20212;-84
2022/07/11 11:54:25;;;;;;;1.40;0.70;;;;;;;;;;5082209;28;20187;-83
2022/07/11 11:57:29;;;;;;;1.23;0.70;;;;;;;;;;5074085;28;20515;-83
2022/07/11 12:00:33;;;;;;;1.13;0.73;;;;;;;;;;5077927;28;20190;-83
2022/07/11 12:04:03;;;;;;;0.70;0.70;;;;;;;;;;5094051;28;20195;-83
2022/07/11 12:07:07;;;;;;;1.30;0.70;;;;;;;;;;5086014;28;20187;-83
2022/07/11 12:10:14;;;;;;;1.40;0.70;;;;;;;;;;5094097;28;20225;-83
2022/07/11 12:13:19;;;;;;;1.67;0.77;;;;;;;;;;5082542;28;20176;-83
2022/07/11 12:16:41;;;;;;;2.80;0.93;;;;;;;;;;5093993;28;20221;-84
2022/07/11 12:19:45;;;;;;;0.80;0.70;;;;;;;;;;5105338;28;20186;-83
2022/07/11 12:22:49;;;;;;;1.90;0.80;;;;;;;;;;5093825;28;20190;-83
2022/07/11 12:25:54;;;;;;;0.80;0.63;;;;;;;;;;5081482;28;20213;-83
2022/07/11 12:29:10;;;;;;;0.73;0.67;;;;;;;;;;5084238;28;20187;-83
2022/07/11 12:32:15;;;;;;;1.27;0.70;;;;;;;;;;5077368;28;20671;-83
2022/07/11 12:35:19;;;;;;;1.20;0.50;;;;;;;;;;5093512;28;20213;-83
2022/07/11 12:38:24;;;;;;;1.43;0.70;;;;;;;;;;5081948;28;20530;-79
2022/07/11 12:41:32;;;;;;;0.60;0.60;;;;;;;;;;5092759;28;20176;-79
2022/07/11 12:47:58;;;;;;;0.40;0.40;;;;;;;;;;5103305;28;20197;-79
2022/07/11 12:51:02;;;;;;;2.17;0.45;;;;;;;;;;5102883;28;20227;-81
2022/07/11 12:54:16;;;;;;;0.75;0.40;;;;;;;;;;5080779;28;20199;-81
2022/07/11 12:57:20;;;;;;;0.35;0.30;;;;;;;;;;5141081;22;20705;-79
2022/07/11 13:00:24;;;;;;;0.43;0.40;;;;;;;;;;5117179;28;20189;-80
2022/07/11 13:03:34;;;;;;;0.20;0.20;;;;;;;;;;5111317;28;20181;-80
2022/07/11 13:10:07;;;;;;;0.40;0.30;;;;;;;;;;5104076;28;20537;-81
2022/07/11 13:13:12;;;;;;;1.80;0.40;;;;;;;;;;5092764;28;20181;-80
2022/07/11 13:16:18;;;;;;;0.43;0.43;;;;;;;;;;5092969;28;20213;-80
2022/07/11 13:19:22;;;;;;;0.80;0.60;;;;;;;;;;5104594;28;20627;-80
2022/07/11 13:22:26;;;;;;;0.50;0.30;;;;;;;;;;5093196;28;20179;-81
2022/07/11 13:25:30;;;;;;;1.10;0.50;;;;;;;;;;5104138;28;20191;-81
2022/07/11 13:28:35;;;;;;;1.55;0.60;;;;;;;;;;5116348;28;20197;-80
2022/07/11 13:31:39;;;;;;;0.30;0.30;;;;;;;;;;5077810;28;20213;-81
2022/07/11 13:34:43;;;;;;;0.90;0.60;;;;;;;;;;5091887;28;20202;-80
2022/07/11 13:37:48;;;;;;;1.58;0.50;;;;;;;;;;5091817;28;20211;-80
2022/07/11 13:40:52;;;;;;;5.45;0.80;;;;;;;;;;5082456;28;20198;-81
2022/07/11 13:43:56;;;;;;;0.65;0.50;;;;;;;;;;5084375;28;20179;-81
2022/07/11 13:47:00;;;;;;;1.02;0.43;;;;;;;;;;5082556;28;20558;-80
2022/07/11 13:50:06;;;;;;;0.80;0.80;;;;;;;;;;5081910;28;20190;-81
2022/07/11 13:53:10;;;;;;;2.70;0.60;;;;;;;;;;5096916;28;20671;-80
2022/07/11 13:56:14;;;;;;;1.10;0.70;;;;;;;;;;5102694;28;20219;-80
2022/07/11 13:59:19;;;;;;;1.67;0.60;;;;;;;;;;5102543;28;20180;-81
2022/07/11 14:02:24;;;;;;;1.10;0.67;;;;;;;;;;5082621;28;20179;-80
2022/07/11 14:05:28;;;;;;;1.17;0.70;;;;;;;;;;5078169;28;20255;-80
2022/07/11 14:08:32;;;;;;;1.37;0.70;;;;;;;;;;5070307;28;20183;-81
2022/07/11 14:11:38;;;;;;;0.90;0.70;;;;;;;;;;5069152;28;20238;-80
2022/07/11 14:14:42;;;;;;;2.13;0.70;;;;;;;;;;5080332;28;20203;-80
2022/07/11 14:17:46;;;;;;;1.87;0.70;;;;;;;;;;5114517;28;20681;-79
2022/07/11 14:20:50;;;;;;;0.83;0.70;;;;;;;;;;5101617;28;20190;-79
2022/07/11 14:23:54;;;;;;;0.87;0.70;;;;;;;;;;5101865;28;20181;-81
2022/07/11 14:26:58;;;;;;;2.60;0.80;;;;;;;;;;5082566;28;20218;-80
2022/07/11 14:30:07;;;;;;;1.23;1.00;;;;;;;;;;5085181;28;20196;-81
2022/07/11 14:33:11;;;;;;;1.57;0.60;;;;;;;;;;5101591;28;20635;-81
2022/07/11 14:36:16;;;;;;;1.20;1.00;;;;;;;;;;5090755;28;20219;-80
2022/07/11 14:39:21;;;;;;;0.87;0.80;;;;;;;;;;5090033;28;20184;-80
2022/07/11 14:42:25;;;;;;;1.10;0.80;;;;;;;;;;5089429;28;20194;-80
2022/07/11 14:45:30;;;;;;;1.50;0.90;;;;;;;;;;5077368;28;20641;-80
2022/07/11 14:48:34;;;;;;;2.80;1.10;;;;;;;;;;5070937;28;20198;-82
2022/07/11 14:51:39;;;;;;;1.53;1.00;;;;;;;;;;5071810;28;20545;-83
2022/07/11 14:54:43;;;;;;;2.23;0.80;;;;;;;;;;5084162;28;20184;-80
2022/07/11 14:57:47;;;;;;;0.93;0.70;;;;;;;;;;5091031;28;20211;-80
2022/07/11 15:00:52;;;;;;;1.70;0.80;;;;;;;;;;5091139;28;20188;-79
2022/07/11 15:03:56;;;;;;;1.70;0.90;;;;;;;;;;5105024;28;20186;-79
2022/07/11 15:13:46;;;;;;;1.00;0.90;;;;;;;;;;5117972;28;20185;-80
2022/07/11 15:16:50;;;;;;;1.00;0.90;;;;;;;;;;5085388;28;20214;-80
2022/07/11 15:19:54;;;;;;;1.73;1.20;;;;;;;;;;5065279;28;20504;-80
2022/07/11 15:22:58;;;;;;;1.97;0.80;;;;;;;;;;5073759;28;20190;-80
2022/07/11 15:26:02;;;;;;;1.77;1.00;;;;;;;;;;5086311;28;20228;-80
2022/07/11 15:29:09;;;;;;;0.97;0.87;;;;;;;;;;5073421;28;20188;-80
2022/07/11 15:32:13;;;;;;;1.20;1.10;;;;;;;;;;5108707;28;20218;-79
2022/07/11 15:35:17;;;;;;;1.10;1.00;;;;;;;;;;5085138;28;20196;-80
2022/07/11 15:38:21;;;;;;;1.70;1.10;;;;;;;;;;5079931;28;20203;-81
2022/07/11 15:41:25;;;;;;;1.30;1.20;;;;;;;;;;5093437;28;20195;-80
2022/07/11 15:44:29;;;;;;;2.60;1.40;;;;;;;;;;5093482;28;20183;-81
2022/07/11 15:47:34;;;;;;;1.33;1.20;;;;;;;;;;5116566;28;20550;-80
2022/07/11 15:50:38;;;;;;;1.60;1.17;;;;;;;;;;5093562;28;20171;-79
2022/07/11 15:53:42;;;;;;;1.47;1.27;;;;;;;;;;5096442;28;20210;-79
2022/07/11 15:56:46;;;;;;;2.30;1.40;;;;;;;;;;5085527;28;20700;-79
2022/07/11 15:59:50;;;;;;;2.57;1.53;;;;;;;;;;5094512;28;20182;-79
2022/07/11 16:02:55;;;;;;;5.57;1.50;;;;;;;;;;5082451;28;20170;-80
2022/07/11 16:05:59;;;;;;;1.93;1.60;;;;;;;;;;5093713;28;20210;-80
2022/07/11 16:09:04;;;;;;;2.13;1.57;;;;;;;;;;5083170;28;20183;-80
2022/07/11 16:12:08;;;;;;;2.13;1.30;;;;;;;;;;5119280;28;20202;-80
2022/07/11 16:15:13;;;;;;;1.70;1.33;;;;;;;;;;5081608;28;20201;-81
2022/07/11 16:18:17;;;;;;;2.00;1.53;;;;;;;;;;5104847;28;20190;-79
2022/07/11 16:21:22;;;;;;;1.57;1.47;;;;;;;;;;5104870;28;20198;-80
2022/07/11 16:24:27;;;;;;;4.33;1.70;;;;;;;;;;5104365;28;20537;-79
2022/07/11 16:27:31;;;;;;;2.67;1.60;;;;;;;;;;5104874;28;20210;-79
2022/07/11 16:30:36;;;;;;;1.80;1.30;;;;;;;;;;5093861;28;20186;-80
2022/07/11 16:33:40;;;;;;;1.60;1.37;;;;;;;;;;5106282;28;20209;-80
2022/07/11 16:36:44;;;;;;;2.70;1.27;;;;;;;;;;5106835;28;20683;-79
2022/07/11 16:43:20;;;;;;;2.30;1.40;;;;;;;;;;5107037;28;20186;-81
2022/07/11 16:46:24;;;;;;;2.70;1.50;;;;;;;;;;5104003;28;20232;-81
2022/07/11 16:49:28;;;;;;;2.03;1.50;;;;;;;;;;5074630;28;20187;-81
2022/07/11 16:52:32;;;;;;;2.43;1.93;;;;;;;;;;5092844;28;20206;-81
2022/07/11 16:55:37;;;;;;;3.10;1.77;;;;;;;;;;5073111;28;20182;-80
2022/07/11 16:58:41;;;;;;;1.63;1.53;;;;;;;;;;5102741;28;20186;-81
2022/07/11 17:01:46;;;;;;;5.27;1.73;;;;;;;;;;5104490;28;20182;-81
2022/07/11 17:04:50;;;;;;;4.37;1.80;;;;;;;;;;5092430;28;20182;-81
2022/07/11 17:11:17;;;;;;;1.83;1.67;;;;;;;;;;5091749;28;20645;-80
2022/07/11 17:14:21;;;;;;;2.23;1.60;;;;;;;;;;5094438;28;20205;-80
2022/07/11 17:17:25;;;;;;;2.47;1.90;;;;;;;;;;5090631;28;20209;-81
2022/07/11 17:20:29;;;;;;;1.73;1.60;;;;;;;;;;5080677;28;20185;-80
2022/07/11 17:23:34;;;;;;;1.80;1.70;;;;;;;;;;5092997;28;20178;-81
2022/07/11 17:26:38;;;;;;;2.33;1.70;;;;;;;;;;5114206;27;20213;-80
2022/07/11 17:29:42;;;;;;;2.20;1.90;;;;;;;;;;5091799;28;20186;-81
2022/07/11 17:32:46;;;;;;;2.23;1.67;;;;;;;;;;5092340;28;20213;-81
2022/07/11 17:35:51;;;;;;;2.00;1.80;;;;;;;;;;5079643;28;20247;-85
2022/07/11 17:38:55;;;;;;;4.13;1.80;;;;;;;;;;5103885;28;20178;-80
2022/07/11 17:41:59;;;;;;;1.73;1.63;;;;;;;;;;5072784;28;20182;-81
2022/07/11 17:45:04;;;;;;;2.57;1.97;;;;;;;;;;5061214;28;20182;-81
2022/07/11 17:48:09;;;;;;;2.20;1.80;;;;;;;;;;5060202;28;20175;-81
2022/07/11 17:51:13;;;;;;;2.20;1.70;;;;;;;;;;5082974;28;20179;-81
2022/07/11 17:54:17;;;;;;;1.80;1.70;;;;;;;;;;5071356;28;20558;-80
2022/07/11 17:57:21;;;;;;;2.83;1.97;;;;;;;;;;5060486;28;20226;-84
2022/07/11 18:00:25;;;;;;;2.20;1.90;;;;;;;;;;5082460;28;20189;-81
2022/07/11 18:03:30;;;;;;;2.63;1.90;;;;;;;;;;5079855;28;20186;-81
2022/07/11 18:06:34;;;;;;;2.17;1.87;;;;;;;;;;5103745;28;20549;-81
2022/07/11 18:09:39;;;;;;;2.67;2.00;;;;;;;;;;5080281;28;20514;-81
2022/07/11 18:12:43;;;;;;;3.37;2.10;;;;;;;;;;5080072;28;20209;-80
2022/07/11 18:15:47;;;;;;;3.07;2.23;;;;;;;;;;5073639;28;20222;-81
2022/07/11 18:18:51;;;;;;;2.70;2.03;;;;;;;;;;5085447;28;20565;-81
2022/07/11 18:21:56;;;;;;;1.90;1.70;;;;;;;;;;5071224;28;20183;-80
2022/07/11 18:25:02;;;;;;;2.20;1.90;;;;;;;;;;5071668;28;20179;-80
2022/07/11 18:28:06;;;;;;;2.73;2.00;;;;;;;;;;5060039;28;20179;-80
2022/07/11 18:31:11;;;;;;;4.73;2.10;;;;;;;;;;5079407;28;20198;-80
2022/07/11 18:34:15;;;;;;;5.23;2.00;;;;;;;;;;5102819;28;20695;-80
2022/07/11 18:37:19;;;;;;;3.40;2.20;;;;;;;;;;5104147;28;20213;-81
2022/07/11 18:44:06;;;;;;;5.27;2.07;;;;;;;;;;5045940;28;20180;-81
2022/07/11 18:47:11;;;;;;;2.23;2.03;;;;;;;;;;5023146;28;20220;-81
2022/07/11 18:50:17;;;;;;;6.20;2.00;;;;;;;;;;5083358;28;20182;-81
2022/07/11 18:53:21;;;;;;;5.37;1.87;;;;;;;;;;5095599;28;20672;-82
2022/07/11 18:56:25;;;;;;;2.53;1.80;;;;;;;;;;5096761;28;20221;-83
2022/07/11 18:59:30;;;;;;;2.60;2.10;;;;;;;;;;5108393;28;20206;-82
2022/07/11 19:02:34;;;;;;;2.40;1.90;;;;;;;;;;5108137;28;20660;-86
2022/07/11 19:05:38;;;;;;;2.73;1.70;;;;;;;;;;5100044;28;20178;-84
2022/07/11 19:08:42;;;;;;;2.07;1.77;;;;;;;;;;5099054;28;20538;-84